createdAt,value
2023-07-17T00:01:00.005Z,99314.84
2023-07-17T00:03:27.469Z,99314.03
2023-07-17T00:05:57.703Z,99316.41
2023-07-17T00:08:25.120Z,99326.31
2023-07-17T00:10:52.644Z,99317.97
2023-07-17T00:13:20.293Z,99314.75
2023-07-17T00:15:47.619Z,99320.94
2023-07-17T00:18:15.880Z,99318.72
2023-07-17T00:20:43.460Z,99310.41
2023-07-17T00:23:12.781Z,99319.53
2023-07-17T00:25:40.246Z,99317.34
2023-07-17T00:28:07.724Z,99319.75
2023-07-17T00:30:35.235Z,99318.94
2023-07-17T00:33:02.701Z,99316.38
2023-07-17T00:35:30.488Z,99316.38
2023-07-17T00:37:57.765Z,99323.13
2023-07-17T00:40:26.538Z,99314.59
2023-07-17T00:42:58.136Z,99320.38
2023-07-17T00:45:25.693Z,99313.41
2023-07-17T00:47:53.348Z,99325.13
2023-07-17T00:50:21.005Z,99325.94
2023-07-17T00:52:48.428Z,99320.75
2023-07-17T00:55:16.758Z,99328.69
2023-07-17T00:57:45.881Z,99326.09
2023-07-17T01:00:14.619Z,99325.31
2023-07-17T01:02:45.166Z,99319.16
2023-07-17T01:05:12.565Z,99318.19
2023-07-17T01:07:41.056Z,99322.53
2023-07-17T01:10:09.655Z,99320.94
2023-07-17T01:12:38.061Z,99324.72
2023-07-17T01:15:11.216Z,99321.13
2023-07-17T01:17:38.938Z,99327.88
2023-07-17T01:20:10.909Z,99326.69
2023-07-17T01:22:41.465Z,99329.09
2023-07-17T01:25:10.811Z,99322.72
2023-07-17T01:27:39.874Z,99333.84
2023-07-17T01:30:08.694Z,99329.50
2023-07-17T01:32:36.139Z,99325.94
2023-07-17T01:35:07.054Z,99330.28
2023-07-17T01:37:34.514Z,99327.53
2023-07-17T01:40:04.492Z,99324.16
2023-07-17T01:42:33.472Z,99333.28
2023-07-17T01:45:01.269Z,99329.91
2023-07-17T01:47:32.870Z,99328.31
2023-07-17T01:50:00.495Z,99337.06
2023-07-17T01:52:27.948Z,99340.63
2023-07-17T01:54:55.340Z,99332.69
2023-07-17T01:57:24.735Z,99335.84
2023-07-17T01:59:53.424Z,99332.28
2023-07-17T02:02:21.141Z,99335.84
2023-07-17T02:04:48.936Z,99329.72
2023-07-17T02:07:16.344Z,99332.28
2023-07-17T02:09:43.797Z,99340.66
2023-07-17T02:12:12.584Z,99334.50
2023-07-17T02:14:40.304Z,99327.53
2023-07-17T02:17:08.987Z,99331.13
2023-07-17T02:19:36.481Z,99336.69
2023-07-17T02:22:03.996Z,99336.50
2023-07-17T02:24:31.535Z,99331.94
2023-07-17T02:27:00.215Z,99341.09
2023-07-17T02:29:27.518Z,99346.03
2023-07-17T02:31:55.078Z,99347.03
2023-07-17T02:34:24.061Z,99341.47
2023-07-17T02:36:53.565Z,99346.47
2023-07-17T02:39:22.207Z,99350.25
2023-07-17T02:41:49.678Z,99343.88
2023-07-17T02:44:17.066Z,99344.31
2023-07-17T02:46:44.316Z,99355.84
2023-07-17T02:49:15.187Z,99353.84
2023-07-17T02:51:44.155Z,99354.66
2023-07-17T02:54:11.532Z,99356.47
2023-07-17T02:56:38.834Z,99356.69
2023-07-17T02:59:06.459Z,99359.47
2023-07-17T03:01:33.943Z,99359.28
2023-07-17T03:04:02.799Z,99358.72
2023-07-17T03:06:30.462Z,99363.09
2023-07-17T03:08:59.107Z,99369.84
2023-07-17T03:11:26.490Z,99359.16
2023-07-17T03:13:53.953Z,99362.94
2023-07-17T03:16:21.877Z,99360.13
2023-07-17T03:18:49.532Z,99369.47
2023-07-17T03:21:17.377Z,99360.13
2023-07-17T03:23:44.961Z,99355.38
2023-07-17T03:26:13.712Z,99359.31
2023-07-17T03:28:41.064Z,99362.09
2023-07-17T03:31:10.781Z,99363.50
2023-07-17T03:33:40.601Z,99356.75
2023-07-17T03:36:08.144Z,99358.91
2023-07-17T03:38:35.671Z,99357.50
2023-07-17T03:41:04.181Z,99367.66
2023-07-17T03:43:32.935Z,99369.44
2023-07-17T03:46:00.415Z,99377.81
2023-07-17T03:48:28.344Z,99375.81
2023-07-17T03:51:00.860Z,99371.00
2023-07-17T03:53:30.870Z,99368.97
2023-07-17T03:55:58.238Z,99374.09
2023-07-17T03:58:25.532Z,99369.06
2023-07-17T04:00:55.130Z,99362.03
2023-07-17T04:03:24.181Z,99364.56
2023-07-17T04:05:51.858Z,99361.50
2023-07-17T04:08:19.142Z,99361.00
2023-07-17T04:10:46.632Z,99358.09
2023-07-17T04:13:14.786Z,99352.41
2023-07-17T04:15:43.141Z,99352.63
2023-07-17T04:18:15.728Z,99351.28
2023-07-17T04:20:43.735Z,99355.59
2023-07-17T04:23:13.137Z,99366.19
2023-07-17T04:25:45.924Z,99355.09
2023-07-17T04:28:13.315Z,99361.22
2023-07-17T04:30:42.227Z,99355.59
2023-07-17T04:33:12.196Z,99353.06
2023-07-17T04:35:41.203Z,99362.28
2023-07-17T04:38:09.107Z,99364.06
2023-07-17T04:40:36.477Z,99366.06
2023-07-17T04:43:04.570Z,99360.22
2023-07-17T04:45:34.123Z,99365.47
2023-07-17T04:48:07.183Z,99369.44
2023-07-17T04:50:34.767Z,99372.63
2023-07-17T04:53:03.420Z,99374.22
2023-07-17T04:55:30.958Z,99366.22
2023-07-17T04:57:58.797Z,99369.41
2023-07-17T05:00:28.563Z,99378.75
2023-07-17T05:02:58.224Z,99376.94
2023-07-17T05:05:27.590Z,99366.28
2023-07-17T05:07:55.781Z,99368.06
2023-07-17T05:10:25.412Z,99362.28
2023-07-17T05:12:54.360Z,99360.44
2023-07-17T05:15:22.269Z,99363.69
2023-07-17T05:17:50.092Z,99365.28
2023-07-17T05:20:17.756Z,99368.13
2023-07-17T05:22:45.313Z,99360.78
2023-07-17T05:25:14.259Z,99364.78
2023-07-17T05:27:43.445Z,99365.56
2023-07-17T05:30:12.541Z,99370.44
2023-07-17T05:32:39.992Z,99369.66
2023-07-17T05:35:08.619Z,99367.19
2023-07-17T05:37:36.823Z,99364.91
2023-07-17T05:40:06.912Z,99368.72
2023-07-17T05:42:34.321Z,99362.78
2023-07-17T05:45:04.976Z,99367.00
2023-07-17T05:47:32.888Z,99365.66
2023-07-17T05:50:00.560Z,99371.13
2023-07-17T05:52:27.958Z,99366.91
2023-07-17T05:54:56.495Z,99374.81
2023-07-17T05:57:24.415Z,99376.00
2023-07-17T05:59:52.077Z,99369.69
2023-07-17T06:02:21.037Z,99368.81
2023-07-17T06:04:48.554Z,99363.75
2023-07-17T06:07:15.988Z,99367.81
2023-07-17T06:09:43.287Z,99371.84
2023-07-17T06:12:10.583Z,99367.81
2023-07-17T06:14:38.102Z,99366.84
2023-07-17T06:17:06.128Z,99359.06
2023-07-17T06:19:34.841Z,99367.50
2023-07-17T06:22:02.171Z,99367.63
2023-07-17T06:24:29.601Z,99362.63
2023-07-17T06:26:57.468Z,99356.31
2023-07-17T06:29:25.002Z,99364.84
2023-07-17T06:31:52.350Z,99364.63
2023-07-17T06:34:22.481Z,99359.94
2023-07-17T06:36:51.845Z,99355.50
2023-07-17T06:39:20.788Z,99353.03
2023-07-17T06:41:48.614Z,99349.72
2023-07-17T06:44:17.219Z,99346.31
2023-07-17T06:46:44.697Z,99352.09
2023-07-17T06:49:12.374Z,99350.19
2023-07-17T06:51:39.739Z,99355.94
2023-07-17T06:54:08.495Z,99350.06
2023-07-17T06:56:35.974Z,99347.00
2023-07-17T06:59:03.288Z,99346.78
2023-07-17T07:01:30.623Z,99337.75
2023-07-17T07:03:58.185Z,99347.91
2023-07-17T07:06:25.755Z,99348.13
2023-07-17T07:08:53.075Z,99346.72
2023-07-17T07:11:22.016Z,99355.63
2023-07-17T07:13:49.282Z,99347.63
2023-07-17T07:16:17.322Z,99352.69
2023-07-17T07:18:45.450Z,99355.06
2023-07-17T07:21:12.802Z,99351.03
2023-07-17T07:23:40.268Z,99357.09
2023-07-17T07:26:07.582Z,99351.84
2023-07-17T07:28:36.295Z,99358.09
2023-07-17T07:31:03.832Z,99353.09
2023-07-17T07:33:31.308Z,99356.84
2023-07-17T07:35:58.721Z,99349.78
2023-07-17T07:38:26.048Z,99354.69
2023-07-17T07:40:53.446Z,99357.38
2023-07-17T07:43:20.706Z,99353.69
2023-07-17T07:45:49.938Z,99347.63
2023-07-17T07:48:17.595Z,99346.53
2023-07-17T07:50:45.262Z,99345.75
2023-07-17T07:53:12.642Z,99334.66
2023-07-17T07:55:40.000Z,99335.66
2023-07-17T07:58:07.311Z,99332.75
2023-07-17T08:00:34.693Z,99329.38
2023-07-17T08:03:03.511Z,99329.50
2023-07-17T08:05:30.888Z,99324.19
2023-07-17T08:07:58.245Z,99320.25
2023-07-17T08:10:25.714Z,99320.88
2023-07-17T08:12:53.000Z,99320.88
2023-07-17T08:15:20.444Z,99321.81
2023-07-17T08:17:47.816Z,99320.38
2023-07-17T08:20:16.748Z,99313.31
2023-07-17T08:22:44.307Z,99315.53
2023-07-17T08:25:11.657Z,99313.41
2023-07-17T08:27:38.948Z,99306.50
2023-07-17T08:30:08.350Z,99306.72
2023-07-17T08:32:35.990Z,99300.25
2023-07-17T08:35:04.528Z,99289.09
2023-07-17T08:37:33.419Z,99291.56
2023-07-17T08:40:01.062Z,99288.47
2023-07-17T08:42:31.000Z,99290.31
2023-07-17T08:44:59.373Z,99288.75
2023-07-17T08:47:27.842Z,99296.88
2023-07-17T08:49:56.757Z,99292.88
2023-07-17T08:52:24.152Z,99291.56
2023-07-17T08:54:53.219Z,99290.94
2023-07-17T08:57:21.407Z,99281.47
2023-07-17T08:59:48.772Z,99285.41
2023-07-17T09:02:16.238Z,99289.28
2023-07-17T09:04:43.662Z,99290.50
2023-07-17T09:07:11.313Z,99286.28
2023-07-17T09:09:38.795Z,99288.19
2023-07-17T09:12:12.741Z,99284.00
2023-07-17T09:14:40.908Z,99281.16
2023-07-17T09:17:11.382Z,99287.59
2023-07-17T09:19:39.557Z,99277.47
2023-07-17T09:22:08.700Z,99274.09
2023-07-17T09:24:37.971Z,99271.50
2023-07-17T09:27:08.037Z,99271.09
2023-07-17T09:29:42.167Z,99269.94
2023-07-17T09:32:17.264Z,99270.16
2023-07-17T09:34:44.576Z,99278.41
2023-07-17T09:37:11.970Z,99272.16
2023-07-17T09:39:39.856Z,99271.97
2023-07-17T09:42:23.515Z,99279.44
2023-07-17T09:44:53.855Z,99275.66
2023-07-17T09:47:21.928Z,99279.72
2023-07-17T09:49:51.596Z,99283.34
2023-07-17T09:52:19.614Z,99274.84
2023-07-17T09:54:50.300Z,99265.63
2023-07-17T09:57:26.991Z,99266.31
2023-07-17T09:59:58.924Z,99271.53
2023-07-17T10:02:31.578Z,99258.94
2023-07-17T10:05:01.364Z,99261.22
2023-07-17T10:07:32.015Z,99273.31
2023-07-17T10:10:00.349Z,99265.63
2023-07-17T10:12:28.509Z,99254.78
2023-07-17T10:14:59.093Z,99257.72
2023-07-17T10:17:31.079Z,99257.94
2023-07-17T10:19:59.949Z,99253.47
2023-07-17T10:22:35.121Z,99244.94
2023-07-17T10:25:24.133Z,99249.84
2023-07-17T10:27:56.314Z,99246.41
2023-07-17T10:30:27.895Z,99250.94
2023-07-17T10:33:08.698Z,99242.22
2023-07-17T10:35:50.436Z,99242.59
2023-07-17T10:38:19.940Z,99237.03
2023-07-17T10:40:47.622Z,99242.56
2023-07-17T10:43:17.629Z,99237.44
2023-07-17T10:45:48.717Z,99228.53
2023-07-17T10:48:19.040Z,99218.16
2023-07-17T10:50:51.051Z,99225.28
2023-07-17T10:53:18.367Z,99218.69
2023-07-17T10:55:47.598Z,99214.50
2023-07-17T10:58:15.714Z,99211.22
2023-07-17T11:00:43.802Z,99213.00
2023-07-17T11:03:15.191Z,99219.81
2023-07-17T11:05:43.603Z,99217.00
2023-07-17T11:08:13.368Z,99212.84
2023-07-17T11:10:42.933Z,99208.72
2023-07-17T11:13:11.526Z,99205.84
2023-07-17T11:15:39.366Z,99201.72
2023-07-17T11:18:09.084Z,99205.84
2023-07-17T11:20:38.559Z,99199.00
2023-07-17T11:23:10.842Z,99199.19
2023-07-17T11:25:38.890Z,99198.22
2023-07-17T11:28:06.501Z,99197.97
2023-07-17T11:30:33.975Z,99204.81
2023-07-17T11:33:02.972Z,99194.47
2023-07-17T11:35:45.600Z,99187.31
2023-07-17T11:38:15.590Z,99172.03
2023-07-17T11:40:53.642Z,99198.16
2023-07-17T11:43:26.724Z,99200.84
2023-07-17T11:46:02.756Z,99188.88
2023-07-17T11:48:31.476Z,99192.69
2023-07-17T11:51:03.680Z,99182.25
2023-07-17T11:53:31.388Z,99178.50
2023-07-17T11:56:02.113Z,99188.56
2023-07-17T11:58:31.602Z,99178.91
2023-07-17T12:00:59.299Z,99177.59
2023-07-17T12:03:26.658Z,99173.06
2023-07-17T12:05:54.382Z,99170.44
2023-07-17T12:08:23.426Z,99174.72
2023-07-17T12:10:50.811Z,99165.06
2023-07-17T12:13:18.522Z,99170.44
2023-07-17T12:15:45.882Z,99163.75
2023-07-17T12:18:13.224Z,99160.25
2023-07-17T12:20:40.487Z,99159.19
2023-07-17T12:23:08.057Z,99157.66
2023-07-17T12:25:40.967Z,99157.66
2023-07-17T12:28:08.325Z,99146.97
2023-07-17T12:30:35.691Z,99148.63
2023-07-17T12:33:03.249Z,99143.78
2023-07-17T12:35:30.908Z,99138.44
2023-07-17T12:37:58.435Z,99138.06
2023-07-17T12:40:26.563Z,99132.59
2023-07-17T12:42:55.576Z,99138.97
2023-07-17T12:45:22.811Z,99142.06
2023-07-17T12:47:50.533Z,99146.09
2023-07-17T12:50:18.195Z,99130.78
2023-07-17T12:52:45.690Z,99138.47
2023-07-17T12:55:13.652Z,99134.91
2023-07-17T12:57:41.909Z,99136.50
2023-07-17T13:00:13.718Z,99131.13
2023-07-17T13:02:42.357Z,99122.53
2023-07-17T13:05:13.976Z,99126.47
2023-07-17T13:07:41.508Z,99121.03
2023-07-17T13:10:09.972Z,99121.69
2023-07-17T13:12:47.567Z,99120.25
2023-07-17T13:15:19.638Z,99108.72
2023-07-17T13:17:47.198Z,99120.13
2023-07-17T13:20:15.083Z,99114.13
2023-07-17T13:22:42.864Z,99124.09
2023-07-17T13:25:10.757Z,99121.78
2023-07-17T13:27:38.201Z,99118.03
2023-07-17T13:30:06.904Z,99113.41
2023-07-17T13:32:35.812Z,99118.03
2023-07-17T13:35:03.241Z,99111.69
2023-07-17T13:37:31.487Z,99112.47
2023-07-17T13:39:59.003Z,99111.81
2023-07-17T13:42:27.510Z,99107.56
2023-07-17T13:45:00.020Z,99110.41
2023-07-17T13:47:27.986Z,99108.53
2023-07-17T13:49:57.027Z,99108.47
2023-07-17T13:52:24.936Z,99103.09
2023-07-17T13:54:52.167Z,99100.31
2023-07-17T13:57:19.996Z,99101.16
2023-07-17T13:59:53.083Z,99097.06
2023-07-17T14:02:21.251Z,99099.59
2023-07-17T14:04:48.854Z,99087.91
2023-07-17T14:07:17.468Z,99090.53
2023-07-17T14:09:44.887Z,99089.81
2023-07-17T14:12:12.480Z,99084.88
2023-07-17T14:14:39.742Z,99092.81
2023-07-17T14:17:07.108Z,99087.13
2023-07-17T14:19:34.610Z,99082.69
2023-07-17T14:22:01.929Z,99081.66
2023-07-17T14:24:30.763Z,99081.09
2023-07-17T14:26:58.109Z,99077.13
2023-07-17T14:29:25.582Z,99082.81
2023-07-17T14:31:53.050Z,99087.66
2023-07-17T14:34:28.609Z,99088.47
2023-07-17T14:36:55.915Z,99084.53
2023-07-17T14:39:23.220Z,99080.97
2023-07-17T14:41:51.898Z,99084.09
2023-07-17T14:44:19.190Z,99076.94
2023-07-17T14:46:46.583Z,99079.16
2023-07-17T14:49:14.114Z,99078.63
2023-07-17T14:51:41.659Z,99068.63
2023-07-17T14:54:09.048Z,99074.66
2023-07-17T14:56:36.466Z,99060.94
2023-07-17T14:59:05.290Z,99065.34
2023-07-17T15:01:32.615Z,99056.09
2023-07-17T15:04:00.027Z,99068.25
2023-07-17T15:06:27.361Z,99052.53
2023-07-17T15:08:54.912Z,99055.50
2023-07-17T15:11:25.984Z,99050.06
2023-07-17T15:13:54.338Z,99055.91
2023-07-17T15:16:23.277Z,99049.47
2023-07-17T15:18:50.747Z,99047.34
2023-07-17T15:21:18.137Z,99052.66
2023-07-17T15:23:45.538Z,99048.72
2023-07-17T15:26:13.081Z,99048.53
2023-07-17T15:28:40.409Z,99047.94
2023-07-17T15:31:13.141Z,99048.09
2023-07-17T15:33:42.135Z,99051.34
2023-07-17T15:36:09.610Z,99047.47
2023-07-17T15:38:36.921Z,99046.66
2023-07-17T15:41:04.636Z,99049.00
2023-07-17T15:43:33.049Z,99053.31
2023-07-17T15:46:00.356Z,99039.97
2023-07-17T15:48:27.731Z,99046.34
2023-07-17T15:50:56.470Z,99048.38
2023-07-17T15:53:25.472Z,99047.59
2023-07-17T15:55:53.091Z,99034.78
2023-07-17T15:58:20.340Z,99039.06
2023-07-17T16:00:47.853Z,99034.38
2023-07-17T16:03:15.209Z,99030.78
2023-07-17T16:05:42.758Z,99038.75
2023-07-17T16:08:11.809Z,99037.53
2023-07-17T16:10:39.400Z,99027.13
2023-07-17T16:13:06.764Z,99027.25
2023-07-17T16:15:34.117Z,99029.72
2023-07-17T16:18:01.640Z,99035.94
2023-07-17T16:20:29.183Z,99026.84
2023-07-17T16:22:56.853Z,99033.00
2023-07-17T16:25:25.954Z,99023.94
2023-07-17T16:27:53.211Z,99029.56
2023-07-17T16:30:21.722Z,99038.31
2023-07-17T16:32:49.249Z,99035.25
2023-07-17T16:35:16.604Z,99042.66
2023-07-17T16:37:43.871Z,99036.41
2023-07-17T16:40:12.201Z,99031.44
2023-07-17T16:42:42.016Z,99035.19
2023-07-17T16:45:10.206Z,99037.56
2023-07-17T16:47:37.983Z,99041.81
2023-07-17T16:50:06.466Z,99035.31
2023-07-17T16:52:34.133Z,99036.63
2023-07-17T16:55:01.829Z,99039.00
2023-07-17T16:57:33.129Z,99034.78
2023-07-17T17:00:04.611Z,99038.22
2023-07-17T17:02:35.578Z,99036.91
2023-07-17T17:05:06.198Z,99035.91
2023-07-17T17:07:33.644Z,99034.34
2023-07-17T17:10:01.013Z,99033.88
2023-07-17T17:12:29.039Z,99034.94
2023-07-17T17:14:56.446Z,99027.63
2023-07-17T17:17:25.442Z,99032.91
2023-07-17T17:19:53.325Z,99030.34
2023-07-17T17:22:21.134Z,99036.91
2023-07-17T17:24:48.476Z,99035.88
2023-07-17T17:27:15.737Z,99035.66
2023-07-17T17:29:43.095Z,99029.09
2023-07-17T17:32:10.436Z,99033.31
2023-07-17T17:34:39.042Z,99024.16
2023-07-17T17:37:06.725Z,99032.03
2023-07-17T17:39:34.080Z,99033.06
2023-07-17T17:42:01.478Z,99032.59
2023-07-17T17:44:28.935Z,99030.75
2023-07-17T17:46:56.433Z,99031.56
2023-07-17T17:49:23.941Z,99032.38
2023-07-17T17:51:52.723Z,99031.63
2023-07-17T17:54:20.036Z,99026.38
2023-07-17T17:56:47.277Z,99028.97
2023-07-17T17:59:14.830Z,99030.03
2023-07-17T18:01:42.233Z,99019.28
2023-07-17T18:04:09.884Z,99028.44
2023-07-17T18:06:37.486Z,99024.22
2023-07-17T18:09:06.170Z,99026.34
2023-07-17T18:11:37.255Z,99025.78
2023-07-17T18:14:10.770Z,99025.00
2023-07-17T18:16:39.676Z,99028.13
2023-07-17T18:19:08.605Z,99023.63
2023-07-17T18:21:36.384Z,99025.66
2023-07-17T18:24:07.290Z,99018.56
2023-07-17T18:26:34.662Z,99021.69
2023-07-17T18:29:02.090Z,99014.56
2023-07-17T18:31:29.647Z,99014.22
2023-07-17T18:33:57.286Z,99012.56
2023-07-17T18:36:25.383Z,99009.66
2023-07-17T18:38:52.715Z,99019.03
2023-07-17T18:41:21.861Z,99008.50
2023-07-17T18:43:52.496Z,99003.72
2023-07-17T18:46:20.922Z,98995.84
2023-07-17T18:48:49.923Z,99001.59
2023-07-17T18:51:17.993Z,99007.31
2023-07-17T18:53:45.503Z,99006.22
2023-07-17T18:56:13.019Z,99006.47
2023-07-17T18:58:42.045Z,99016.00
2023-07-17T19:01:09.464Z,99009.94
2023-07-17T19:03:37.051Z,99016.66
2023-07-17T19:06:05.150Z,99022.63
2023-07-17T19:08:32.541Z,99013.97
2023-07-17T19:11:02.377Z,99012.56
2023-07-17T19:13:29.818Z,99017.69
2023-07-17T19:15:59.095Z,99017.34
2023-07-17T19:18:26.882Z,99012.28
2023-07-17T19:20:54.601Z,99013.16
2023-07-17T19:23:22.649Z,99007.09
2023-07-17T19:25:49.980Z,99014.38
2023-07-17T19:28:17.533Z,99014.38
2023-07-17T19:30:47.392Z,99011.97
2023-07-17T19:33:16.640Z,99017.59
2023-07-17T19:35:44.415Z,99020.34
2023-07-17T19:38:11.679Z,99013.91
2023-07-17T19:40:39.029Z,99012.97
2023-07-17T19:43:06.497Z,99016.03
2023-07-17T19:45:33.984Z,99011.09
2023-07-17T19:48:01.455Z,99010.28
2023-07-17T19:50:31.030Z,99011.63
2023-07-17T19:52:58.337Z,99015.00
2023-07-17T19:55:25.607Z,99007.19
2023-07-17T19:57:53.213Z,99008.47
2023-07-17T20:00:20.615Z,99007.44
2023-07-17T20:02:48.723Z,99010.31
2023-07-17T20:05:16.565Z,99014.09
2023-07-17T20:07:45.212Z,99020.22
2023-07-17T20:10:12.545Z,99013.03
2023-07-17T20:12:39.829Z,99008.25
2023-07-17T20:15:08.322Z,99013.94
2023-07-17T20:17:37.173Z,99011.94
2023-07-17T20:20:06.395Z,99007.91
2023-07-17T20:22:39.296Z,99002.88
2023-07-17T20:25:09.785Z,99000.91
2023-07-17T20:27:41.013Z,98998.13
2023-07-17T20:30:09.613Z,99000.81
2023-07-17T20:32:37.109Z,98999.06
2023-07-17T20:35:20.752Z,99000.16
2023-07-17T20:37:52.219Z,98995.50
2023-07-17T20:40:21.893Z,98988.72
2023-07-17T20:42:49.792Z,98994.78
2023-07-17T20:45:18.416Z,98992.50
2023-07-17T20:47:46.391Z,98990.69
2023-07-17T20:50:14.348Z,98986.06
2023-07-17T20:52:45.583Z,98989.44
2023-07-17T20:55:17.374Z,98987.88
2023-07-17T20:57:46.503Z,98979.81
2023-07-17T21:00:14.702Z,98993.06
2023-07-17T21:02:42.536Z,98975.84
2023-07-17T21:05:10.196Z,98992.50
2023-07-17T21:07:38.420Z,98987.75
2023-07-17T21:10:06.399Z,98982.47
2023-07-17T21:12:35.473Z,98978.06
2023-07-17T21:15:04.941Z,98969.94
2023-07-17T21:17:33.181Z,98978.78
2023-07-17T21:20:00.528Z,98968.81
2023-07-17T21:22:27.860Z,98968.28
2023-07-17T21:24:55.321Z,98964.34
2023-07-17T21:27:22.954Z,98971.91
2023-07-17T21:29:50.417Z,98962.00
2023-07-17T21:32:19.526Z,98969.47
2023-07-17T21:34:46.799Z,98964.75
2023-07-17T21:37:14.161Z,98958.22
2023-07-17T21:39:44.671Z,98954.50
2023-07-17T21:42:12.357Z,98947.97
2023-07-17T21:44:39.994Z,98952.88
2023-07-17T21:47:07.969Z,98949.22
2023-07-17T21:49:36.621Z,98943.22
2023-07-17T21:52:04.484Z,98939.28
2023-07-17T21:54:32.075Z,98938.50
2023-07-17T21:56:59.557Z,98936.91
2023-07-17T21:59:26.878Z,98940.31
2023-07-17T22:01:54.846Z,98944.97
2023-07-17T22:04:22.107Z,98944.66
2023-07-17T22:06:50.772Z,98943.56
2023-07-17T22:09:18.510Z,98942.31
2023-07-17T22:11:46.503Z,98945.94
2023-07-17T22:14:14.240Z,98937.09
2023-07-17T22:16:41.648Z,98940.78
2023-07-17T22:19:09.143Z,98936.13
2023-07-17T22:21:36.972Z,98931.16
2023-07-17T22:24:06.799Z,98929.81
2023-07-17T22:26:34.143Z,98923.53
2023-07-17T22:29:01.718Z,98929.44
2023-07-17T22:31:29.350Z,98922.34
2023-07-17T22:33:57.404Z,98916.28
2023-07-17T22:36:25.151Z,98916.41
2023-07-17T22:38:52.738Z,98912.72
2023-07-17T22:41:21.659Z,98908.53
2023-07-17T22:43:49.019Z,98907.22
2023-07-17T22:46:16.706Z,98906.41
2023-07-17T22:48:44.099Z,98907.41
2023-07-17T22:51:11.368Z,98909.47
2023-07-17T22:53:38.617Z,98906.31
2023-07-17T22:56:05.900Z,98897.09
2023-07-17T22:58:37.409Z,98904.09
2023-07-17T23:01:04.627Z,98903.84
2023-07-17T23:03:33.517Z,98904.03
2023-07-17T23:06:01.088Z,98905.75
2023-07-17T23:08:28.444Z,98895.97
2023-07-17T23:10:55.989Z,98900.91
2023-07-17T23:13:23.258Z,98895.72
2023-07-17T23:15:52.467Z,98894.94
2023-07-17T23:18:20.876Z,98886.59
2023-07-17T23:20:48.183Z,98889.66
2023-07-17T23:23:16.650Z,98895.56
2023-07-17T23:25:45.475Z,98893.91
2023-07-17T23:28:13.598Z,98896.72
2023-07-17T23:30:41.414Z,98887.91
2023-07-17T23:33:10.672Z,98895.22
2023-07-17T23:35:39.500Z,98880.66
2023-07-17T23:38:06.968Z,98886.91
2023-07-17T23:40:34.229Z,98885.75
2023-07-17T23:43:04.004Z,98876.41
2023-07-17T23:45:32.416Z,98868.91
2023-07-17T23:48:01.032Z,98870.31
2023-07-17T23:50:30.254Z,98871.22
2023-07-17T23:52:57.540Z,98854.09
2023-07-17T23:55:24.986Z,98850.81
2023-07-17T23:57:52.649Z,98856.09
